Time;durP1;ratioP1;P1;durP2;ratioP2;P2;SDS_P1;SDS_P2;PMS_P1;PMS_P2;Temp;Humidity;BMP_temperature;BMP_pressure;BME280_temperature;BME280_humidity;BME280_pressure;Samples;Min_cycle;Max_cycle;Signal;HPM_P1;HPM_P2
2021/04/01 00:00:09;;;;;;;;;;;;;;;18.62;32.55;101332.97;5031642;28;98037;-85
2021/04/01 00:02:35;;;;;;;;;;;;;;;18.47;32.96;101332.97;5032012;28;96898;-85
2021/04/01 00:05:01;;;;;;;;;;;;;;;18.38;33.46;101329.00;5031983;28;96810;-86
2021/04/01 00:07:28;;;;;;;;;;;;;;;18.49;33.01;101325.72;5032448;28;97800;-86
2021/04/01 00:09:54;;;;;;;;;;;;;;;18.38;33.26;101317.47;5033154;28;98991;-85
2021/04/01 00:12:20;;;;;;;;;;;;;;;18.51;32.96;101315.78;5028745;28;96894;-85
2021/04/01 00:14:45;;;;;;;;;;;;;;;18.21;33.29;101321.13;5033386;28;96689;-87
2021/04/01 00:17:19;;;;;;;;;;;;;;;18.10;33.43;101311.06;5038920;28;98372;-85
2021/04/01 00:19:44;;;;;;;;;;;;;;;18.32;33.05;101313.31;5046154;27;99096;-85
2021/04/01 00:22:10;;;;;;;;;;;;;;;18.24;32.90;101315.59;5034240;28;98342;-87
2021/04/01 00:24:38;;;;;;;;;;;;;;;18.23;33.07;101308.53;5041746;28;96981;-84
2021/04/01 00:27:04;;;;;;;;;;;;;;;18.38;32.98;101307.59;5048027;27;97816;-86
2021/04/01 00:29:30;;;;;;;;;;;;;;;18.46;32.83;101302.66;5048033;28;98207;-84
2021/04/01 00:31:56;;;;;;;;;;;;;;;18.81;31.92;101299.72;5050817;28;97830;-86
2021/04/01 00:34:21;;;;;;;;;;;;;;;18.80;32.16;101301.53;5048670;28;96883;-86
2021/04/01 00:36:47;;;;;;;;;;;;;;;18.98;31.90;101302.22;5044014;28;97533;-84
2021/04/01 00:39:13;;;;;;;;;;;;;;;18.78;32.21;101294.53;5044136;28;96879;-85
2021/04/01 00:41:40;;;;;;;;;;;;;;;18.66;32.19;101294.34;5042241;28;98085;-85
2021/04/01 00:44:06;;;;;;;;;;;;;;;18.65;32.41;101294.41;5049690;28;96933;-86
2021/04/01 00:46:32;;;;;;;;;;;;;;;18.55;32.39;101283.44;5041801;28;97813;-86
2021/04/01 00:48:58;;;;;;;;;;;;;;;18.71;32.49;101278.84;5034671;28;100126;-84
2021/04/01 00:51:24;;;;;;;;;;;;;;;18.41;32.91;101287.84;5032804;28;97780;-84
2021/04/01 00:53:50;;;;;;;;;;;;;;;18.46;32.80;101289.28;5034020;28;97388;-86
2021/04/01 00:56:17;;;;;;;;;;;;;;;18.31;33.29;101291.06;5031016;27;99023;-86
2021/04/01 00:58:44;;;;;;;;;;;;;;;17.86;34.22;101283.88;5035925;28;99431;-86
2021/04/01 01:01:24;;;;;;;;;;;;;;;17.73;34.79;101277.50;5031428;28;97019;-87
2021/04/01 01:03:49;;;;;;;;;;;;;;;18.13;34.11;101275.22;5037492;28;97390;-86
2021/04/01 01:06:15;;;;;;;;;;;;;;;18.06;33.92;101266.69;5029913;28;99907;-86
2021/04/01 01:08:41;;;;;;;;;;;;;;;18.32;33.50;101270.50;5034921;28;98813;-84
2021/04/01 01:11:07;;;;;;;;;;;;;;;18.04;33.68;101271.28;5030057;28;97163;-86
2021/04/01 01:13:33;;;;;;;;;;;;;;;17.90;34.15;101266.75;5040985;28;97032;-84
2021/04/01 01:16:00;;;;;;;;;;;;;;;18.06;33.41;101269.38;5036599;28;98979;-84
2021/04/01 01:18:26;;;;;;;;;;;;;;;18.29;33.02;101266.22;5037092;28;96965;-84
2021/04/01 01:20:52;;;;;;;;;;;;;;;18.21;33.59;101263.13;5042567;27;97062;-85
2021/04/01 01:23:19;;;;;;;;;;;;;;;18.41;32.50;101261.94;5028483;28;96907;-85
2021/04/01 01:25:45;;;;;;;;;;;;;;;18.19;33.09;101269.50;5031059;28;100123;-86
2021/04/01 01:28:12;;;;;;;;;;;;;;;18.15;33.12;101254.59;5041230;27;96939;-86
2021/04/01 01:30:38;;;;;;;;;;;;;;;18.28;32.79;101256.47;5031391;28;97797;-85
2021/04/01 01:33:07;;;;;;;;;;;;;;;17.95;33.71;101258.44;5040004;28;96843;-86
2021/04/01 01:35:34;;;;;;;;;;;;;;;18.26;33.10;101252.16;5028235;28;98925;-86
2021/04/01 01:38:01;;;;;;;;;;;;;;;18.17;33.13;101256.25;5030699;28;99034;-86
2021/04/01 01:40:27;;;;;;;;;;;;;;;18.03;33.60;101247.31;5039060;28;96757;-86
2021/04/01 01:42:55;;;;;;;;;;;;;;;18.17;33.30;101250.91;5037739;28;96832;-85
2021/04/01 01:45:21;;;;;;;;;;;;;;;18.25;33.58;101251.28;5040679;28;98933;-86
2021/04/01 01:47:47;;;;;;;;;;;;;;;18.29;33.27;101254.66;5040746;28;97693;-87
2021/04/01 01:50:14;;;;;;;;;;;;;;;17.85;34.18;101251.91;5038120;28;97006;-87
2021/04/01 01:52:41;;;;;;;;;;;;;;;18.04;33.61;101251.72;5032488;28;96969;-85
2021/04/01 01:55:08;;;;;;;;;;;;;;;18.10;33.35;101240.66;5033789;28;99035;-87
2021/04/01 01:57:34;;;;;;;;;;;;;;;17.99;33.44;101246.59;5035681;28;97583;-85
2021/04/01 02:00:01;;;;;;;;;;;;;;;18.10;33.11;101248.69;5035475;28;96776;-86
2021/04/01 02:02:27;;;;;;;;;;;;;;;18.03;33.38;101250.84;5042867;28;96906;-86
2021/04/01 02:04:52;;;;;;;;;;;;;;;18.35;32.49;101243.59;5044226;28;98273;-86
2021/04/01 02:07:18;;;;;;;;;;;;;;;18.35;32.83;101248.94;5035396;28;97663;-85
2021/04/01 02:09:45;;;;;;;;;;;;;;;18.13;33.67;101251.16;5034391;28;96607;-85
2021/04/01 02:12:11;;;;;;;;;;;;;;;18.22;33.49;101242.59;5034606;28;96820;-85
2021/04/01 02:14:37;;;;;;;;;;;;;;;18.29;33.24;101238.59;5031465;28;99299;-86
2021/04/01 02:17:04;;;;;;;;;;;;;;;17.99;33.01;101240.41;5022609;28;98469;-85
2021/04/01 02:19:30;;;;;;;;;;;;;;;18.17;33.09;101234.00;5034559;27;97523;-85
2021/04/01 02:21:56;;;;;;;;;;;;;;;18.23;32.66;101226.47;5024639;28;96765;-84
2021/04/01 02:24:22;;;;;;;;;;;;;;;18.20;33.28;101223.09;5035623;28;99058;-85
2021/04/01 02:26:53;;;;;;;;;;;;;;;18.48;32.21;101225.84;5030859;28;98725;-86
2021/04/01 02:29:19;;;;;;;;;;;;;;;18.43;32.19;101227.09;5035057;28;96743;-85
2021/04/01 02:31:45;;;;;;;;;;;;;;;18.41;32.39;101226.31;5035235;28;97488;-85
2021/04/01 02:34:11;;;;;;;;;;;;;;;18.45;32.56;101225.16;5025862;28;98984;-86
2021/04/01 02:36:37;;;;;;;;;;;;;;;17.99;33.40;101222.53;5037247;28;98923;-85
2021/04/01 02:39:03;;;;;;;;;;;;;;;18.39;32.70;101222.84;5040215;28;97097;-85
2021/04/01 02:41:29;;;;;;;;;;;;;;;18.20;33.15;101236.47;5028905;28;97075;-84
2021/04/01 02:43:55;;;;;;;;;;;;;;;18.29;33.16;101233.25;5030943;28;98875;-85
2021/04/01 02:46:21;;;;;;;;;;;;;;;18.15;33.67;101230.53;5034831;28;99283;-85
2021/04/01 02:48:46;;;;;;;;;;;;;;;18.40;33.19;101229.94;5040613;28;96837;-86
2021/04/01 02:51:13;;;;;;;;;;;;;;;18.28;33.69;101237.75;5038428;27;97081;-86
2021/04/01 02:53:39;;;;;;;;;;;;;;;18.43;33.25;101227.09;5033144;28;101895;-87
2021/04/01 02:56:05;;;;;;;;;;;;;;;18.30;33.81;101235.84;5045572;28;99495;-86
2021/04/01 02:58:31;;;;;;;;;;;;;;;18.22;33.71;101227.41;5040947;28;96899;-84
2021/04/01 03:00:57;;;;;;;;;;;;;;;18.00;33.14;101226.94;5033036;28;96735;-85
2021/04/01 03:03:27;;;;;;;;;;;;;;;18.06;32.93;101233.75;5035536;28;100729;-86
2021/04/01 03:05:55;;;;;;;;;;;;;;;18.21;33.00;101231.03;5037447;28;97813;-85
2021/04/01 03:08:22;;;;;;;;;;;;;;;18.02;33.15;101227.72;5028456;28;96821;-86
2021/04/01 03:10:48;;;;;;;;;;;;;;;18.26;33.13;101214.69;5032971;28;97010;-86
2021/04/01 03:13:14;;;;;;;;;;;;;;;18.22;33.29;101222.06;5041404;27;101924;-84
2021/04/01 03:15:40;;;;;;;;;;;;;;;18.51;32.56;101217.59;5030804;28;97821;-85
2021/04/01 03:18:06;;;;;;;;;;;;;;;18.01;33.03;101207.28;5042374;27;96700;-85
2021/04/01 03:20:32;;;;;;;;;;;;;;;17.91;33.15;101223.03;5039707;28;98762;-84
2021/04/01 03:22:58;;;;;;;;;;;;;;;17.77;33.73;101214.94;5033789;28;98439;-84
2021/04/01 03:25:24;;;;;;;;;;;;;;;18.09;33.08;101212.19;5031593;28;99099;-85
2021/04/01 03:27:50;;;;;;;;;;;;;;;17.95;33.05;101221.00;5035387;28;96853;-86
2021/04/01 03:30:16;;;;;;;;;;;;;;;17.90;33.15;101221.28;5041343;28;97616;-85
2021/04/01 03:32:44;;;;;;;;;;;;;;;17.88;33.11;101220.50;5039870;28;100125;-85
2021/04/01 03:35:11;;;;;;;;;;;;;;;18.39;32.55;101218.34;5043773;27;96735;-84
2021/04/01 03:37:37;;;;;;;;;;;;;;;18.24;32.72;101208.59;5049726;28;96951;-85
2021/04/01 03:40:03;;;;;;;;;;;;;;;18.26;32.58;101212.88;5052483;27;96747;-85
2021/04/01 03:42:30;;;;;;;;;;;;;;;17.86;33.38;101210.84;5047265;28;98126;-83
2021/04/01 03:44:56;;;;;;;;;;;;;;;18.26;32.82;101212.88;5045943;28;99076;-84
2021/04/01 03:47:22;;;;;;;;;;;;;;;18.17;32.70;101213.47;5043516;28;96324;-84
2021/04/01 03:49:47;;;;;;;;;;;;;;;17.78;33.78;101208.66;5045355;28;97080;-85
2021/04/01 03:52:13;;;;;;;;;;;;;;;17.57;34.39;101217.84;5042746;28;98226;-86
2021/04/01 03:54:40;;;;;;;;;;;;;;;17.85;33.67;101215.31;5036939;28;97725;-85
2021/04/01 03:57:06;;;;;;;;;;;;;;;18.24;33.06;101209.47;5033911;28;96793;-85
2021/04/01 03:59:42;;;;;;;;;;;;;;;18.30;32.86;101216.25;5036178;28;97589;-85
2021/04/01 04:05:12;;;;;;;;;;;;;;;18.02;33.38;101218.84;5033203;27;96978;-85
2021/04/01 04:10:31;;;;;;;;;;;;;;;18.10;33.57;101217.44;5049221;28;97280;-83
2021/04/01 04:13:07;;;;;;;;;;;;;;;18.11;33.32;101208.47;5048887;27;100718;-85
2021/04/01 04:15:34;;;;;;;;;;;;;;;18.25;33.04;101203.13;5048375;27;98250;-84
2021/04/01 04:18:00;;;;;;;;;;;;;;;18.13;33.13;101205.69;5048540;28;97461;-86
2021/04/01 04:20:26;;;;;;;;;;;;;;;17.96;33.72;101208.50;5043319;28;96802;-84
2021/04/01 04:22:52;;;;;;;;;;;;;;;18.37;32.68;101206.06;5034375;28;98372;-85
2021/04/01 04:25:24;;;;;;;;;;;;;;;18.20;33.04;101207.03;5037357;28;101292;-86
2021/04/01 04:28:03;;;;;;;;;;;;;;;18.20;33.01;101207.03;5035954;28;96933;-85
2021/04/01 04:30:29;;;;;;;;;;;;;;;18.42;32.68;101201.28;5032824;28;96765;-84
2021/04/01 04:32:56;;;;;;;;;;;;;;;18.20;33.22;101194.53;5032837;28;98198;-86
2021/04/01 04:35:22;;;;;;;;;;;;;;;17.89;33.70;101208.00;5031840;28;100786;-85
2021/04/01 04:37:51;;;;;;;;;;;;;;;18.17;33.25;101204.56;5031801;28;96964;-85
2021/04/01 04:40:17;;;;;;;;;;;;;;;18.02;33.45;101192.09;5031565;28;96862;-86
2021/04/01 04:42:43;;;;;;;;;;;;;;;18.15;33.07;101187.75;5035744;28;99094;-85
2021/04/01 04:45:10;;;;;;;;;;;;;;;17.83;33.54;101186.97;5043244;28;97923;-85
2021/04/01 04:47:35;;;;;;;;;;;;;;;18.10;33.17;101188.03;5039862;27;96896;-85
2021/04/01 04:50:03;;;;;;;;;;;;;;;17.69;33.73;101189.59;5033935;28;96891;-85
2021/04/01 04:52:31;;;;;;;;;;;;;;;17.82;33.62;101190.59;5035087;28;97517;-86
2021/04/01 04:54:57;;;;;;;;;;;;;;;17.81;34.12;101194.22;5036802;28;99426;-86
2021/04/01 04:57:27;;;;;;;;;;;;;;;18.08;33.38;101195.28;5032410;28;98067;-85
2021/04/01 05:00:20;;;;;;;;;;;;;;;18.10;33.64;101188.03;5034258;28;96963;-86
2021/04/01 05:05:31;;;;;;;;;;;;;;;18.13;33.68;101197.66;5044037;28;97318;-86
2021/04/01 05:07:57;;;;;;;;;;;;;;;18.28;33.37;101200.28;5035382;28;96646;-84
2021/04/01 05:10:23;;;;;;;;;;;;;;;18.22;33.61;101206.00;5032443;28;97126;-85
2021/04/01 05:12:57;;;;;;;;;;;;;;;18.00;33.75;101200.22;5037638;27;97926;-85
2021/04/01 05:15:24;;;;;;;;;;;;;;;18.29;33.72;101202.03;5041537;28;98798;-84
2021/04/01 05:17:50;;;;;;;;;;;;;;;17.26;35.22;101210.72;5027463;28;97232;-85
2021/04/01 05:20:16;;;;;;;;;;;;;;;17.08;36.08;101209.03;5035064;28;97040;-85
2021/04/01 05:22:49;;;;;;;;;;;;;;;17.01;35.53;101216.53;5036707;28;99232;-85
2021/04/01 05:25:15;;;;;;;;;;;;;;;16.69;36.23;101209.41;5041960;28;97843;-86
2021/04/01 05:27:43;;;;;;;;;;;;;;;17.10;35.58;101217.84;5041203;28;96722;-85
2021/04/01 05:30:10;;;;;;;;;;;;;;;17.50;35.17;101214.66;5036375;27;96783;-83
2021/04/01 05:32:37;;;;;;;;;;;;;;;17.70;34.44;101218.91;5031698;28;101394;-85
2021/04/01 05:35:07;;;;;;;;;;;;;;;18.00;34.20;101221.59;5037069;28;97746;-83
2021/04/01 05:37:33;;;;;;;;;;;;;;;17.92;33.99;101231.88;5041950;28;96788;-84
2021/04/01 05:40:01;;;;;;;;;;;;;;;17.78;34.50;101224.69;5042157;28;96748;-84
2021/04/01 05:42:33;;;;;;;;;;;;;;;17.58;34.75;101226.75;5036685;27;98559;-84
2021/04/01 05:45:03;;;;;;;;;;;;;;;18.04;34.13;101220.47;5043948;28;98032;-86
2021/04/01 05:47:34;;;;;;;;;;;;;;;17.71;34.86;101223.31;5035277;28;96722;-84
2021/04/01 05:50:11;;;;;;;;;;;;;;;17.95;34.16;101220.16;5038134;28;96803;-84
2021/04/01 06:01:31;;;;;;;;;;;;;;;18.00;34.09;101204.69;5040687;28;96909;-85
2021/04/01 06:04:04;;;;;;;;;;;;;;;17.26;35.42;101223.22;5044908;28;97986;-84
2021/04/01 06:06:34;;;;;;;;;;;;;;;17.60;34.99;101224.81;5040238;28;97546;-85
2021/04/01 06:09:03;;;;;;;;;;;;;;;17.89;34.41;101226.72;5034881;28;97125;-84
2021/04/01 06:11:30;;;;;;;;;;;;;;;17.90;34.18;101232.00;5041469;27;97943;-83
2021/04/01 06:16:45;;;;;;;;;;;;;;;18.43;33.57;101225.25;5041726;27;98624;-86
2021/04/01 06:19:11;;;;;;;;;;;;;;;18.65;33.46;101225.69;5043676;28;96712;-85
2021/04/01 06:21:39;;;;;;;;;;;;;;;18.57;33.47;101235.16;5046272;28;97319;-85
2021/04/01 06:24:13;;;;;;;;;;;;;;;18.29;34.04;101243.97;5039846;28;98890;-85
2021/04/01 06:26:43;;;;;;;;;;;;;;;18.15;34.53;101254.59;5042545;28;98906;-84
2021/04/01 06:29:11;;;;;;;;;;;;;;;18.24;34.35;101244.25;5041437;28;96758;-83
2021/04/01 06:31:42;;;;;;;;;;;;;;;17.92;34.90;101250.59;5046234;28;96934;-84
2021/04/01 06:34:08;;;;;;;;;;;;;;;18.24;34.40;101252.25;5050533;27;98840;-84
2021/04/01 06:36:36;;;;;;;;;;;;;;;18.33;34.05;101267.75;5040458;28;99422;-85
2021/04/01 06:39:05;;;;;;;;;;;;;;;18.59;33.74;101268.91;5047731;28;96969;-85
2021/04/01 06:41:31;;;;;;;;;;;;;;;18.76;33.35;101275.06;5055906;27;96825;-84
2021/04/01 06:44:20;;;;;;;;;;;;;;;18.91;32.97;101279.44;5056462;27;97716;-84
2021/04/01 06:46:48;;;;;;;;;;;;;;;19.18;32.77;101277.72;5052786;27;98315;-85
2021/04/01 06:49:32;;;;;;;;;;;;;;;18.78;33.18;101273.97;5051106;27;97566;-84
2021/04/01 06:52:03;;;;;;;;;;;;;;;18.89;33.22;101276.88;5049994;28;97076;-85
2021/04/01 06:54:32;;;;;;;;;;;;;;;18.97;33.10;101285.28;5055388;27;97946;-85
2021/04/01 06:57:17;;;;;;;;;;;;;;;19.00;32.99;101271.72;5050496;27;99511;-85
2021/04/01 06:59:54;;;;;;;;;;;;;;;19.03;33.14;101257.28;5053570;28;97273;-84
2021/04/01 07:02:26;;;;;;;;;;;;;;;19.21;32.62;101266.84;5045564;27;96600;-87
2021/04/01 07:04:56;;;;;;;;;;;;;;;18.79;33.95;101253.44;5045448;27;98129;-86
2021/04/01 07:07:24;;;;;;;;;;;;;;;19.27;32.88;101247.69;5052702;28;98311;-86
2021/04/01 07:10:13;;;;;;;;;;;;;;;19.52;32.64;101259.53;5050801;28;96724;-85
2021/04/01 07:12:44;;;;;;;;;;;;;;;18.96;33.53;101251.44;5055943;27;96769;-86
2021/04/01 07:15:14;;;;;;;;;;;;;;;19.31;32.91;101243.84;5053073;28;97547;-84
2021/04/01 07:17:43;;;;;;;;;;;;;;;18.82;33.80;101231.84;5045791;27;99862;-84
2021/04/01 07:23:43;;;;;;;;;;;;;;;18.22;35.39;101227.41;5035324;27;97161;-87
2021/04/01 07:32:10;;;;;;;;;;;;;;;19.55;33.21;101209.28;5055735;28;96606;-86
2021/04/01 07:46:18;;;;;;;;;;;;;;;19.80;32.14;101243.38;5043316;28;98205;-85
2021/04/01 07:48:45;;;;;;;;;;;;;;;20.17;31.45;101231.91;5046919;28;101113;-85
2021/04/01 07:51:23;;;;;;;;;;;;;;;20.67;30.69;101233.00;5045838;27;99198;-86
2021/04/01 07:53:52;;;;;;;;;;;;;;;20.57;30.52;101219.34;5046106;27;96759;-87
2021/04/01 07:56:22;;;;;;;;;;;;;;;20.75;30.16;101222.53;5048037;28;96843;-85
2021/04/01 07:59:02;;;;;;;;;;;;;;;20.65;30.40;101208.06;5040453;28;99978;-84
2021/04/01 08:01:45;;;;;;;;;;;;;;;21.00;29.74;101224.38;5041199;28;100618;-84
2021/04/01 08:04:11;;;;;;;;;;;;;;;20.44;30.04;101231.88;5041789;28;96773;-84
2021/04/01 08:06:39;;;;;;;;;;;;;;;20.45;30.28;101232.75;5036494;28;96963;-85
2021/04/01 08:09:08;;;;;;;;;;;;;;;20.78;30.09;101246.50;5043342;27;98976;-83
2021/04/01 08:11:37;;;;;;;;;;;;;;;20.62;30.47;101243.16;5044900;28;99415;-82
2021/04/01 08:14:07;;;;;;;;;;;;;;;20.94;30.17;101230.16;5040612;27;96887;-82
2021/04/01 08:16:36;;;;;;;;;;;;;;;21.01;29.81;101226.94;5044244;27;96765;-83
2021/04/01 08:19:03;;;;;;;;;;;;;;;21.25;29.38;101220.81;5046097;28;101869;-83
2021/04/01 08:21:29;;;;;;;;;;;;;;;21.51;28.42;101209.00;5044691;28;98233;-82
2021/04/01 08:24:03;;;;;;;;;;;;;;;21.86;27.83;101212.59;5045460;27;96935;-83
2021/04/01 08:26:40;;;;;;;;;;;;;;;21.71;27.72;101213.78;5047230;28;96906;-84
2021/04/01 08:29:24;;;;;;;;;;;;;;;21.77;27.15;101212.44;5046048;28;99252;-83
2021/04/01 08:34:37;;;;;;;;;;;;;;;21.69;26.66;101220.22;5040266;27;97348;-82
2021/04/01 08:37:05;;;;;;;;;;;;;;;21.21;27.61;101220.16;5035135;27;97839;-85
2021/04/01 08:39:33;;;;;;;;;;;;;;;21.05;27.89;101223.06;5032693;27;97878;-84
2021/04/01 08:42:33;;;;;;;;;;;;;;;21.25;28.46;101229.72;5036131;27;99498;-85
2021/04/01 08:45:30;;;;;;;;;;;;;;;21.38;27.40;101218.94;4997882;28;98540;-84
2021/04/01 08:48:02;;;;;;;;;;;;;;;21.23;27.65;101239.72;4977116;28;96913;-86
2021/04/01 08:50:31;;;;;;;;;;;;;;;21.20;27.86;101241.78;5021110;27;99886;-85
2021/04/01 08:53:15;;;;;;;;;;;;;;;21.28;27.91;101242.06;5041541;28;99354;-85
2021/04/01 08:55:47;;;;;;;;;;;;;;;21.12;27.77;101257.56;5040529;27;97862;-85
2021/04/01 08:58:19;;;;;;;;;;;;;;;20.78;28.26;101261.75;5039070;27;97086;-84
2021/04/01 09:00:46;;;;;;;;;;;;;;;20.69;29.32;101264.13;5040733;27;97983;-83
2021/04/01 09:03:14;;;;;;;;;;;;;;;20.87;29.02;101258.44;5036951;27;97912;-84
2021/04/01 09:05:51;;;;;;;;;;;;;;;21.06;28.98;101265.09;5036224;27;96950;-86
2021/04/01 09:08:23;;;;;;;;;;;;;;;21.31;29.09;101256.16;5045882;27;97277;-85
2021/04/01 09:10:53;;;;;;;;;;;;;;;21.00;29.83;101230.56;5040096;27;97062;-84
2021/04/01 09:13:23;;;;;;;;;;;;;;;20.80;30.35;101233.00;5039391;28;100920;-85
2021/04/01 09:15:52;;;;;;;;;;;;;;;21.59;30.09;101230.81;5035299;28;97634;-87
2021/04/01 09:18:21;;;;;;;;;;;;;;;21.54;31.94;101219.53;5043204;27;97211;-86
2021/04/01 09:20:48;;;;;;;;;;;;;;;21.34;31.22;101196.78;5043486;27;100041;-87
2021/04/01 09:23:19;;;;;;;;;;;;;;;21.59;31.64;101214.69;5044025;27;99254;-86
2021/04/01 09:25:46;;;;;;;;;;;;;;;21.50;31.16;101238.69;5043663;27;96681;-86
2021/04/01 09:28:13;;;;;;;;;;;;;;;21.77;30.68;101224.06;5056572;27;96622;-86
2021/04/01 09:30:40;;;;;;;;;;;;;;;21.84;30.90;101230.72;5046530;27;97893;-85
2021/04/01 09:33:09;;;;;;;;;;;;;;;21.86;31.58;101234.13;5038937;27;100760;-86
2021/04/01 09:35:35;;;;;;;;;;;;;;;21.74;31.31;101245.81;5042268;27;96736;-86
2021/04/01 09:38:04;;;;;;;;;;;;;;;21.85;31.62;101253.97;5040737;28;96777;-85
2021/04/01 09:40:32;;;;;;;;;;;;;;;22.67;30.52;101233.31;5037263;28;98362;-87
2021/04/01 09:43:08;;;;;;;;;;;;;;;22.90;30.10;101237.81;5049325;27;97717;-86
2021/04/01 09:45:35;;;;;;;;;;;;;;;22.09;30.98;101220.81;5037967;27;96674;-83
2021/04/01 09:48:18;;;;;;;;;;;;;;;22.25;31.24;101232.13;5041034;27;97525;-84
2021/04/01 09:50:45;;;;;;;;;;;;;;;21.97;31.76;101237.88;5039032;27;100950;-83
2021/04/01 09:53:18;;;;;;;;;;;;;;;22.47;31.10;101223.25;5049277;27;98046;-85
2021/04/01 09:55:45;;;;;;;;;;;;;;;22.57;30.69;101224.25;5037013;27;96799;-85
2021/04/01 09:58:20;;;;;;;;;;;;;;;22.51;30.20;101217.50;5042198;27;96823;-84
2021/04/01 10:01:02;;;;;;;;;;;;;;;22.86;29.88;101220.16;5042090;27;97927;-84
2021/04/01 10:03:30;;;;;;;;;;;;;;;22.62;29.90;101224.75;5048588;27;100114;-85
2021/04/01 10:05:57;;;;;;;;;;;;;;;22.58;30.27;101223.25;5044404;28;96729;-85
2021/04/01 10:08:23;;;;;;;;;;;;;;;22.26;30.31;101226.63;5043264;28;97208;-84
2021/04/01 10:10:50;;;;;;;;;;;;;;;22.29;30.14;101225.53;5035066;27;99935;-85
2021/04/01 10:13:18;;;;;;;;;;;;;;;22.21;30.20;101212.66;5036970;27;98868;-85
2021/04/01 10:15:45;;;;;;;;;;;;;;;21.98;30.55;101210.00;5035256;27;96791;-84
2021/04/01 10:18:14;;;;;;;;;;;;;;;22.11;30.66;101211.66;5046282;27;96816;-84
2021/04/01 10:20:40;;;;;;;;;;;;;;;22.23;30.42;101209.84;5043626;27;97861;-86
2021/04/01 10:23:06;;;;;;;;;;;;;;;22.37;30.82;101206.09;5035773;27;98960;-84
2021/04/01 10:25:37;;;;;;;;;;;;;;;22.68;30.03;101213.50;5039342;27;97094;-84
2021/04/01 10:28:09;;;;;;;;;;;;;;;22.70;29.37;101210.69;5043983;28;97276;-85
2021/04/01 10:30:36;;;;;;;;;;;;;;;22.71;29.68;101198.94;5035628;28;97878;-85
2021/04/01 10:33:06;;;;;;;;;;;;;;;22.31;30.01;101202.06;5035534;27;98086;-84
2021/04/01 10:35:34;;;;;;;;;;;;;;;22.02;30.40;101195.34;5036311;27;96953;-84
2021/04/01 10:38:02;;;;;;;;;;;;;;;21.65;30.55;101206.16;5039290;27;97480;-83
2021/04/01 10:40:30;;;;;;;;;;;;;;;22.04;30.01;101199.66;5034171;27;98167;-81
2021/04/01 10:43:02;;;;;;;;;;;;;;;22.23;29.53;101205.34;5037023;28;97733;-81
2021/04/01 10:45:32;;;;;;;;;;;;;;;22.36;29.17;101204.38;5041802;28;97232;-84
2021/04/01 10:48:02;;;;;;;;;;;;;;;22.03;29.29;101200.63;5042279;27;96763;-85
2021/04/01 10:50:28;;;;;;;;;;;;;;;22.03;28.83;101206.00;5041552;28;98177;-84
2021/04/01 10:52:55;;;;;;;;;;;;;;;22.07;29.02;101206.59;5042663;27;97696;-83
2021/04/01 10:55:24;;;;;;;;;;;;;;;21.90;29.40;101202.47;5046681;27;96682;-83
2021/04/01 10:57:53;;;;;;;;;;;;;;;21.98;29.26;101207.31;5049857;28;96645;-84
2021/04/01 11:00:20;;;;;;;;;;;;;;;22.20;28.86;101202.00;5049134;27;97952;-83
2021/04/01 11:02:48;;;;;;;;;;;;;;;21.60;29.15;101186.78;5048576;27;97793;-83
2021/04/01 11:05:16;;;;;;;;;;;;;;;22.02;29.16;101169.28;5052475;27;96843;-81
2021/04/01 11:07:47;;;;;;;;;;;;;;;22.21;29.44;101168.72;5049361;27;96765;-82
2021/04/01 11:10:24;;;;;;;;;;;;;;;22.67;29.11;101164.16;5045335;27;98280;-82
2021/04/01 11:12:50;;;;;;;;;;;;;;;22.70;29.88;101160.38;5044226;27;98724;-82
2021/04/01 11:15:17;;;;;;;;;;;;;;;22.73;30.85;101159.28;5040831;27;96921;-83
2021/04/01 11:17:47;;;;;;;;;;;;;;;22.72;29.38;101155.69;5037251;27;96927;-83
2021/04/01 11:20:15;;;;;;;;;;;;;;;22.80;28.95;101155.13;5044083;27;97750;-83
2021/04/01 11:22:41;;;;;;;;;;;;;;;23.27;27.58;101149.44;5043739;27;98823;-82
2021/04/01 11:25:10;;;;;;;;;;;;;;;23.45;27.61;101142.50;5040707;27;96810;-85
2021/04/01 11:27:50;;;;;;;;;;;;;;;23.33;27.95;101132.75;5045215;27;97220;-82
2021/04/01 11:30:17;;;;;;;;;;;;;;;22.72;28.05;101135.97;5038114;27;97917;-82
2021/04/01 11:32:49;;;;;;;;;;;;;;;22.26;27.40;101128.84;5034725;27;99373;-82
2021/04/01 11:35:15;;;;;;;;;;;;;;;22.37;28.98;101128.88;5028816;27;96837;-83
2021/04/01 11:37:45;;;;;;;;;;;;;;;22.67;28.43;101144.44;5037104;27;96810;-83
2021/04/01 11:40:12;;;;;;;;;;;;;;;22.80;28.00;101147.03;5032941;27;102223;-82
2021/04/01 11:42:38;;;;;;;;;;;;;;;22.75;27.98;101158.19;5042083;27;98997;-81
2021/04/01 11:45:08;;;;;;;;;;;;;;;22.73;28.12;101164.66;5043718;27;97512;-81
2021/04/01 11:47:35;;;;;;;;;;;;;;;22.44;28.23;101161.56;5033521;27;96980;-80
2021/04/01 11:50:02;;;;;;;;;;;;;;;22.81;28.16;101164.91;5033063;27;98986;-82
2021/04/01 11:52:28;;;;;;;;;;;;;;;22.72;27.51;101162.91;5037698;27;98045;-81
2021/04/01 11:54:54;;;;;;;;;;;;;;;22.53;27.81;101159.00;5037199;27;96821;-83
2021/04/01 11:57:26;;;;;;;;;;;;;;;22.73;27.49;101170.06;5031662;27;96882;-82
2021/04/01 12:00:00;;;;;;;;;;;;;;;22.95;27.74;101168.22;5038368;27;98830;-81
2021/04/01 12:02:27;;;;;;;;;;;;;;;23.24;26.93;101162.28;5031583;27;100672;-81
2021/04/01 12:04:56;;;;;;;;;;;;;;;23.42;26.49;101160.81;5043599;27;96948;-82
2021/04/01 12:07:22;;;;;;;;;;;;;;;23.53;26.51;101162.63;5040041;27;96853;-82
2021/04/01 12:09:49;;;;;;;;;;;;;;;23.36;26.59;101164.88;5038147;27;98779;-81
2021/04/01 12:12:25;;;;;;;;;;;;;;;23.18;26.56;101160.97;5032993;27;98913;-83
2021/04/01 12:14:51;;;;;;;;;;;;;;;23.20;26.64;101163.53;5032455;27;97934;-83
2021/04/01 12:17:29;;;;;;;;;;;;;;;23.30;25.86;101159.13;5035856;27;96775;-83
2021/04/01 12:19:55;;;;;;;;;;;;;;;23.22;25.16;101167.84;5037986;27;98350;-84
2021/04/01 12:22:21;;;;;;;;;;;;;;;22.60;25.96;101176.38;5037426;27;100089;-83
2021/04/01 12:24:47;;;;;;;;;;;;;;;22.76;25.71;101169.81;5039926;27;96829;-83
2021/04/01 12:27:12;;;;;;;;;;;;;;;22.42;26.76;101180.53;5045790;27;97772;-83
2021/04/01 12:29:44;;;;;;;;;;;;;;;21.99;26.70;101171.38;5042362;27;98515;-82
2021/04/01 12:32:10;;;;;;;;;;;;;;;22.78;26.26;101173.22;5047559;27;98091;-83
2021/04/01 12:34:36;;;;;;;;;;;;;;;22.68;26.37;101165.00;5050813;27;97355;-82
2021/04/01 12:37:03;;;;;;;;;;;;;;;22.67;26.53;101166.84;5045384;27;96580;-82
2021/04/01 12:39:30;;;;;;;;;;;;;;;22.81;26.44;101170.31;5050321;28;100377;-82
2021/04/01 12:41:56;;;;;;;;;;;;;;;23.40;25.56;101168.16;5049458;27;96744;-83
2021/04/01 12:44:32;;;;;;;;;;;;;;;23.47;25.74;101171.19;5045216;28;97188;-82
2021/04/01 12:47:01;;;;;;;;;;;;;;;22.97;26.75;101151.94;5048647;27;96579;-85
2021/04/01 12:49:31;;;;;;;;;;;;;;;22.85;28.12;101164.53;5044184;27;99074;-84
2021/04/01 12:52:01;;;;;;;;;;;;;;;22.54;29.44;101162.53;5042140;28;97866;-81
2021/04/01 12:54:28;;;;;;;;;;;;;;;23.37;28.99;101160.31;5047777;28;97047;-84
2021/04/01 12:56:57;;;;;;;;;;;;;;;22.76;30.11;101161.75;5043903;27;96824;-84
2021/04/01 12:59:30;;;;;;;;;;;;;;;21.50;32.43;101166.97;5055459;27;98000;-83
2021/04/01 13:02:01;;;;;;;;;;;;;;;21.15;33.24;101164.13;5049554;27;98648;-82
2021/04/01 13:04:27;;;;;;;;;;;;;;;21.57;32.35;101167.34;5048723;27;96889;-82
2021/04/01 13:07:00;;;;;;;;;;;;;;;21.85;31.41;101157.09;5046889;28;97627;-82
2021/04/01 13:09:42;;;;;;;;;;;;;;;22.65;29.83;101152.63;5043650;27;99726;-82
2021/04/01 13:12:09;;;;;;;;;;;;;;;23.41;28.81;101156.38;5050696;27;97998;-82
2021/04/01 13:14:35;;;;;;;;;;;;;;;23.25;28.34;101153.22;5052951;28;96774;-83
2021/04/01 13:17:01;;;;;;;;;;;;;;;23.20;28.20;101148.22;5055062;27;96574;-82
2021/04/01 13:19:27;;;;;;;;;;;;;;;22.94;28.03;101158.44;5051830;27;97783;-82
2021/04/01 13:22:06;;;;;;;;;;;;;;;22.17;29.19;101160.06;5057111;27;100716;-82
2021/04/01 13:24:38;;;;;;;;;;;;;;;21.83;29.41;101164.44;5052451;27;96765;-83
2021/04/01 13:27:07;;;;;;;;;;;;;;;21.49;29.37;101170.63;5047039;27;97366;-82